Hopkins, Missouri
Current Conditions -  °F | °C
As of 8:15 AM on Saturday 22 Nov 2014 (Local Time) from KICL Reporting Station
Haze Haze  
Wind Chill: 36°   Ceiling: 400
Heat Index: 41°   Visibility: 3mi
Dew Point: 41°   Wind: 7mph
Humidity: 100%   Direction: 190°S
Pressure: 29.92"   Gusts: NA
Location:  40.55°N, 94.82°W
Report Text: KICL 221415Z AUTO 19006KT 3SM BR OVC004 05/05 A2992 RMK AO2
Loading
Personal Weather Stations






























Interactive Weather Map New forecast layout! Learn more

10-Day Weather Forecast

Advertisements
Track Severe Weather on mobile